Bearden, Oklahoma
Current Conditions -  °F | °C
As of 11:35 PM on Wednesday 22 Oct 2014 (Local Time) from KOKM Reporting Station
Broken Clouds Broken Clouds  
Wind Chill: 64°   Ceiling: 5500
Heat Index: 64°   Visibility: 10mi
Dew Point: 57°   Wind: 6mph
Humidity: 77%   Direction: 160°SSE
Pressure: 30.13"   Gusts: NA
Location:  35.469°N, 96.2923°W
Report Text: KOKM 230435Z AUTO 16005KT 10SM BKN055 BKN110 18/14 A3013 RMK AO2 T01800140
Loading
Personal Weather Stations






























Interactive Weather Map New forecast layout! Learn more

10-Day Weather Forecast

Advertisements
Track Severe Weather on mobile